Time;durP1;ratioP1;P1;durP2;ratioP2;P2;SDS_P1;SDS_P2;PMS_P1;PMS_P2;Temp;Humidity;BMP_temperature;BMP_pressure;BME280_temperature;BME280_humidity;BME280_pressure;Samples;Min_cycle;Max_cycle;Signal;HPM_P1;HPM_P2
2023/01/04 00:02:48;;;;;;;1999.90;999.90;;;9.00;99.90;;;;;;6650707;88;20197;-76
2023/01/04 00:12:49;;;;;;;1999.90;999.90;;;9.10;99.90;;;;;;6649645;88;20650;-76
2023/01/04 00:22:49;;;;;;;1999.90;999.90;;;9.10;99.90;;;;;;6646177;89;20257;-77
2023/01/04 00:32:50;;;;;;;1999.90;999.90;;;9.10;99.90;;;;;;6659157;88;20222;-76
2023/01/04 00:42:50;;;;;;;1999.90;999.90;;;9.10;99.90;;;;;;6652789;88;20245;-76
2023/01/04 00:52:51;;;;;;;1999.90;999.90;;;9.20;99.90;;;;;;6649892;89;20586;-78
2023/01/04 01:02:51;;;;;;;1999.90;999.90;;;9.30;99.90;;;;;;6645169;89;20208;-77
2023/01/04 01:12:52;;;;;;;1999.90;999.90;;;9.30;99.90;;;;;;6644938;89;20202;-76
2023/01/04 01:22:52;;;;;;;1999.90;999.90;;;9.40;99.90;;;;;;6644430;89;20184;-76
2023/01/04 01:32:53;;;;;;;1999.90;999.90;;;9.50;99.90;;;;;;6649489;89;20984;-76
2023/01/04 01:42:53;;;;;;;1999.90;999.90;;;9.30;99.90;;;;;;6646844;89;20727;-77
2023/01/04 01:52:56;;;;;;;1999.90;999.90;;;8.90;99.90;;;;;;6652508;88;20692;-76
2023/01/04 02:03:11;;;;;;;1999.90;999.90;;;8.80;99.90;;;;;;6654141;89;20225;-76
2023/01/04 02:13:16;;;;;;;1999.90;999.90;;;8.70;99.90;;;;;;6652556;88;20192;-77
2023/01/04 02:23:40;;;;;;;1999.90;999.90;;;8.70;99.90;;;;;;6651471;88;20197;-76
2023/01/04 02:34:12;;;;;;;1999.90;999.90;;;8.80;99.90;;;;;;6659884;88;20296;-76
2023/01/04 02:54:37;;;;;;;1999.90;999.90;;;9.10;99.90;;;;;;6646860;88;20188;-76
2023/01/04 03:15:30;;;;;;;1999.90;999.90;;;9.40;99.90;;;;;;6644937;89;20195;-77
2023/01/04 03:36:19;;;;;;;1999.90;999.90;;;9.60;99.90;;;;;;6644362;89;20276;-76
2023/01/04 03:56:55;;;;;;;1999.90;999.90;;;9.50;99.90;;;;;;6650649;89;20248;-75
2023/01/04 04:17:15;;;;;;;1999.90;999.90;;;9.60;99.90;;;;;;6645720;89;20228;-75
2023/01/04 04:27:16;;;;;;;1999.90;999.90;;;9.60;99.90;;;;;;6648468;89;20232;-76
2023/01/04 04:37:16;;;;;;;1999.90;999.90;;;9.40;99.90;;;;;;6647259;89;20236;-76
2023/01/04 04:47:17;;;;;;;1999.90;999.90;;;9.00;99.90;;;;;;6648629;89;20192;-77
2023/01/04 04:57:17;;;;;;;1999.90;999.90;;;9.00;99.90;;;;;;6644480;89;20311;-77
2023/01/04 05:07:18;;;;;;;1999.90;999.90;;;9.10;99.90;;;;;;6646680;89;20209;-76
2023/01/04 05:17:18;;;;;;;1999.90;999.90;;;9.20;99.90;;;;;;6649104;88;20598;-76
2023/01/04 05:27:19;;;;;;;1999.90;999.90;;;9.40;99.90;;;;;;6645319;89;20248;-76
2023/01/04 05:37:19;;;;;;;1999.90;999.90;;;9.50;99.90;;;;;;6644817;89;20204;-76
2023/01/04 05:47:21;;;;;;;1999.90;999.90;;;9.50;99.90;;;;;;6644379;89;20188;-77
2023/01/04 05:57:22;;;;;;;1999.90;999.90;;;9.50;99.90;;;;;;6656189;89;20194;-76
2023/01/04 06:07:23;;;;;;;1999.90;999.90;;;9.50;99.90;;;;;;6629024;76;20232;-74
2023/01/04 06:17:23;;;;;;;1999.90;999.90;;;9.70;99.90;;;;;;6626589;88;20192;-74
2023/01/04 06:27:24;;;;;;;1999.90;999.90;;;9.80;99.90;;;;;;6627032;88;20272;-74
2023/01/04 06:37:25;;;;;;;1999.90;999.90;;;9.90;99.90;;;;;;6627528;88;20837;-74
2023/01/04 06:47:25;;;;;;;1999.90;999.90;;;9.90;99.90;;;;;;6637683;88;20189;-73
2023/01/04 06:57:26;;;;;;;1999.90;999.90;;;9.90;99.90;;;;;;6625467;88;20205;-74
2023/01/04 07:07:27;;;;;;;1999.90;999.90;;;9.90;99.90;;;;;;6631689;88;20223;-74
2023/01/04 07:17:27;;;;;;;1999.90;999.90;;;10.00;99.90;;;;;;6641705;88;20185;-73
2023/01/04 07:27:28;;;;;;;1999.90;999.90;;;10.00;99.90;;;;;;6643693;89;20177;-74
2023/01/04 07:37:28;;;;;;;1999.90;999.90;;;10.00;99.90;;;;;;6628089;88;20198;-74
2023/01/04 07:47:29;;;;;;;1999.90;999.90;;;10.00;99.90;;;;;;6635795;88;20201;-73
2023/01/04 07:57:29;;;;;;;1999.90;999.90;;;10.10;99.90;;;;;;6637725;89;20328;-73
2023/01/04 08:07:30;;;;;;;1999.90;999.90;;;10.20;99.90;;;;;;6632396;89;20193;-74
2023/01/04 08:17:30;;;;;;;1999.90;999.90;;;10.20;99.90;;;;;;6633813;89;20185;-74
2023/01/04 08:27:31;;;;;;;1999.90;999.90;;;10.20;99.90;;;;;;6643355;88;20253;-73
2023/01/04 08:37:34;;;;;;;1999.90;999.90;;;10.30;99.90;;;;;;6632110;88;20229;-74
2023/01/04 08:47:34;;;;;;;1999.90;999.90;;;10.30;99.90;;;;;;6645430;88;20193;-73
2023/01/04 08:57:35;;;;;;;1999.90;999.90;;;10.40;99.90;;;;;;6643762;88;20235;-73
2023/01/04 09:07:35;;;;;;;1999.90;999.90;;;10.60;99.90;;;;;;6627513;88;21221;-73
2023/01/04 09:17:36;;;;;;;1999.90;999.90;;;10.80;99.90;;;;;;6627729;89;20216;-74
2023/01/04 09:27:38;;;;;;;1999.90;999.90;;;11.10;99.90;;;;;;6625554;89;20205;-73
2023/01/04 09:37:39;;;;;;;1999.90;999.90;;;11.30;99.90;;;;;;6631176;89;20314;-73
2023/01/04 09:48:03;;;;;;;1999.90;999.90;;;11.60;99.90;;;;;;6623641;88;20574;-74
2023/01/04 09:58:26;;;;;;;1999.90;999.90;;;11.80;99.90;;;;;;6626891;89;20166;-73
2023/01/04 10:08:30;;;;;;;1999.90;999.90;;;12.00;99.90;;;;;;6627484;89;20215;-73
2023/01/04 10:18:54;;;;;;;1999.90;999.90;;;12.00;99.90;;;;;;6624893;89;20186;-74
2023/01/04 10:29:28;;;;;;;1999.90;999.90;;;12.10;99.90;;;;;;6626310;89;20329;-74
2023/01/04 10:39:34;;;;;;;1999.90;999.90;;;12.30;99.90;;;;;;6629686;89;20198;-74
2023/01/04 10:49:47;;;;;;;1999.90;999.90;;;12.50;99.90;;;;;;6623283;89;20181;-73
2023/01/04 11:00:02;;;;;;;1999.90;999.90;;;12.60;99.90;;;;;;6624336;89;20307;-74
2023/01/04 11:10:18;;;;;;;1999.90;999.90;;;12.50;99.90;;;;;;6626859;89;20185;-73
2023/01/04 11:20:19;;;;;;;1999.90;999.90;;;12.60;99.90;;;;;;6637730;88;20252;-73
2023/01/04 11:30:24;;;;;;;1999.90;999.90;;;12.60;99.90;;;;;;6627285;89;20722;-74
2023/01/04 11:40:26;;;;;;;1999.90;999.90;;;12.50;99.90;;;;;;6635852;88;20201;-73
2023/01/04 11:50:47;;;;;;;1999.90;999.90;;;12.20;99.90;;;;;;6627996;88;20687;-73
2023/01/04 12:00:55;;;;;;;1999.90;999.90;;;12.30;99.90;;;;;;6632921;77;20327;-78
2023/01/04 12:10:58;;;;;;;1999.90;999.90;;;12.30;99.90;;;;;;6673521;88;20641;-77
2023/01/04 12:21:01;;;;;;;1999.90;999.90;;;12.40;99.90;;;;;;6630852;89;20219;-76
2023/01/04 12:31:20;;;;;;;1999.90;999.90;;;12.60;99.90;;;;;;6630715;89;20229;-77
2023/01/04 12:41:34;;;;;;;1999.90;999.90;;;12.70;99.90;;;;;;6630194;89;20237;-76
2023/01/04 12:51:34;;;;;;;1999.90;999.90;;;12.80;99.90;;;;;;6630014;89;20205;-76
2023/01/04 13:01:35;;;;;;;1999.90;999.90;;;12.50;99.90;;;;;;6628977;89;20286;-77
2023/01/04 13:11:57;;;;;;;1999.90;999.90;;;12.40;99.90;;;;;;6628665;88;20403;-77
2023/01/04 13:21:58;;;;;;;1999.90;999.90;;;12.60;99.90;;;;;;6628749;89;20328;-76
2023/01/04 13:32:04;;;;;;;1999.90;999.90;;;12.80;99.90;;;;;;6628813;89;20362;-77
2023/01/04 13:42:11;;;;;;;1999.90;999.90;;;12.90;99.90;;;;;;6640445;89;20196;-76
2023/01/04 13:52:26;;;;;;;1999.90;999.90;;;13.10;99.90;;;;;;6652127;89;20176;-76
2023/01/04 14:02:28;;;;;;;1999.90;999.90;;;13.20;99.90;;;;;;6630410;88;20705;-77
2023/01/04 14:12:28;;;;;;;1999.90;999.90;;;13.30;99.90;;;;;;6642234;88;20204;-78
2023/01/04 14:22:41;;;;;;;1999.90;999.90;;;13.30;99.90;;;;;;6626929;89;20188;-78
2023/01/04 14:32:59;;;;;;;1999.90;999.90;;;13.30;99.90;;;;;;6639724;89;20516;-78
2023/01/04 14:42:59;;;;;;;1999.90;999.90;;;13.40;99.90;;;;;;6627279;89;20610;-76
2023/01/04 14:53:00;;;;;;;1999.90;999.90;;;13.40;99.90;;;;;;6631194;89;20204;-77
2023/01/04 15:03:00;;;;;;;1999.90;999.90;;;13.50;99.90;;;;;;6644176;89;20212;-77
2023/01/04 15:13:03;;;;;;;1999.90;999.90;;;13.50;99.90;;;;;;6644688;89;20330;-77
2023/01/04 15:23:03;;;;;;;1999.90;999.90;;;13.50;99.90;;;;;;6646150;89;20200;-76
2023/01/04 15:33:04;;;;;;;1999.90;999.90;;;13.50;99.90;;;;;;6660835;88;20201;-76
2023/01/04 15:43:04;;;;;;;1999.90;999.90;;;13.50;99.90;;;;;;6648255;89;20230;-77
2023/01/04 15:53:06;;;;;;;1999.90;999.90;;;13.50;99.90;;;;;;6663762;88;20189;-77
2023/01/04 16:03:07;;;;;;;1999.90;999.90;;;13.40;99.90;;;;;;6649077;88;20314;-78
2023/01/04 16:13:07;;;;;;;1999.90;999.90;;;13.40;99.90;;;;;;6647311;88;20694;-77
2023/01/04 16:23:08;;;;;;;1999.90;999.90;;;13.40;99.90;;;;;;6652279;88;20616;-78
2023/01/04 16:33:08;;;;;;;1999.90;999.90;;;13.40;99.90;;;;;;6653922;88;20212;-77
2023/01/04 16:43:09;;;;;;;1999.90;999.90;;;13.40;99.90;;;;;;6648413;89;20229;-77
2023/01/04 16:53:10;;;;;;;1999.90;999.90;;;13.30;99.90;;;;;;6647549;88;20307;-78
2023/01/04 17:03:10;;;;;;;1999.90;999.90;;;13.00;99.90;;;;;;6654657;88;20212;-78
2023/01/04 17:13:11;;;;;;;1999.90;999.90;;;12.80;99.90;;;;;;6656873;88;20216;-77
2023/01/04 17:23:11;;;;;;;1999.90;999.90;;;12.90;99.90;;;;;;6652826;88;20328;-77
2023/01/04 17:33:12;;;;;;;1999.90;999.90;;;12.90;99.90;;;;;;6649008;89;20192;-78
2023/01/04 17:43:12;;;;;;;1999.90;999.90;;;13.00;99.90;;;;;;6646009;88;20698;-77
2023/01/04 17:53:13;;;;;;;1999.90;999.90;;;12.70;99.90;;;;;;6646053;88;20320;-78
2023/01/04 18:03:13;;;;;;;1999.90;999.90;;;12.50;99.90;;;;;;6647083;89;20410;-78
2023/01/04 18:13:14;;;;;;;1999.90;999.90;;;12.50;99.90;;;;;;6646658;88;20651;-77
2023/01/04 18:23:15;;;;;;;1999.90;999.90;;;12.70;99.90;;;;;;6645773;89;20697;-78
2023/01/04 18:33:15;;;;;;;1999.90;999.90;;;12.60;99.90;;;;;;6647343;88;20276;-77
2023/01/04 18:43:16;;;;;;;1999.90;999.90;;;12.70;99.90;;;;;;6655956;88;20188;-77
2023/01/04 18:53:16;;;;;;;1999.90;999.90;;;12.80;99.90;;;;;;6646874;89;20764;-78
2023/01/04 19:03:17;;;;;;;1999.90;999.90;;;12.90;99.90;;;;;;6647825;88;20224;-77
2023/01/04 19:13:17;;;;;;;1999.90;999.90;;;12.90;99.90;;;;;;6648217;89;20240;-78
2023/01/04 19:23:18;;;;;;;1999.90;999.90;;;13.00;99.90;;;;;;6647333;88;20556;-77
2023/01/04 19:33:19;;;;;;;1999.90;999.90;;;13.00;99.90;;;;;;6646613;88;20281;-77
2023/01/04 19:43:19;;;;;;;1999.90;999.90;;;13.00;99.90;;;;;;6639547;89;20325;-76
2023/01/04 19:53:20;;;;;;;1999.90;999.90;;;13.10;99.90;;;;;;6646250;88;20172;-77
2023/01/04 20:03:21;;;;;;;1999.90;999.90;;;13.20;99.90;;;;;;6646066;88;20188;-77
2023/01/04 20:13:22;;;;;;;1999.90;999.90;;;13.30;99.90;;;;;;6641699;88;20239;-77
2023/01/04 20:23:22;;;;;;;1999.90;999.90;;;13.20;99.90;;;;;;6637099;88;20319;-76
2023/01/04 20:33:23;;;;;;;1999.90;999.90;;;13.20;99.90;;;;;;6640069;88;20184;-76
2023/01/04 20:43:33;;;;;;;1999.90;999.90;;;13.20;99.90;;;;;;6639344;88;20204;-76
2023/01/04 20:53:35;;;;;;;1999.90;999.90;;;13.10;99.90;;;;;;6644753;88;20344;-74
2023/01/04 21:03:35;;;;;;;1999.90;999.90;;;13.10;99.90;;;;;;6641013;88;20211;-76
2023/01/04 21:13:36;;;;;;;1999.90;999.90;;;13.20;99.90;;;;;;6653457;88;20669;-76
2023/01/04 21:23:37;;;;;;;1999.90;999.90;;;13.10;99.90;;;;;;6639125;88;20202;-76
2023/01/04 21:33:38;;;;;;;1999.90;999.90;;;13.10;99.90;;;;;;6637908;88;20230;-76
2023/01/04 21:43:39;;;;;;;1999.90;999.90;;;13.10;99.90;;;;;;6636395;88;20221;-77
2023/01/04 21:53:40;;;;;;;1999.90;999.90;;;13.10;99.90;;;;;;6643958;88;20204;-75
2023/01/04 22:03:41;;;;;;;1999.90;999.90;;;13.10;99.90;;;;;;6642613;88;20275;-75
2023/01/04 22:13:42;;;;;;;1999.90;999.90;;;13.10;99.90;;;;;;6645086;88;20214;-77
2023/01/04 22:23:43;;;;;;;1999.90;999.90;;;13.10;99.90;;;;;;6641318;88;20488;-75
2023/01/04 22:33:43;;;;;;;1999.90;999.90;;;13.00;99.90;;;;;;6647722;88;20196;-76
2023/01/04 22:43:44;;;;;;;1999.90;999.90;;;12.90;99.90;;;;;;6652091;88;20678;-76
2023/01/04 22:53:45;;;;;;;1999.90;999.90;;;12.90;99.90;;;;;;6643609;88;20192;-76
2023/01/04 23:03:45;;;;;;;1999.90;999.90;;;12.80;99.90;;;;;;6645822;88;20198;-75
2023/01/04 23:13:46;;;;;;;1999.90;999.90;;;12.60;99.90;;;;;;6650503;88;20255;-76
2023/01/04 23:23:48;;;;;;;1999.90;999.90;;;12.40;99.90;;;;;;6648218;88;20234;-75
2023/01/04 23:33:54;;;;;;;1999.90;999.90;;;12.30;99.90;;;;;;6645588;88;20188;-76
2023/01/04 23:43:54;;;;;;;1999.90;999.90;;;12.20;99.90;;;;;;6652317;88;20205;-76
2023/01/04 23:53:55;;;;;;;1999.90;999.90;;;12.00;99.90;;;;;;6651222;88;20206;-76
